Windsor, North Carolina
Current Conditions -  °F | °C
As of 9:15 AM on Sunday 25 Jan 2015 (Local Time) from KEDE Reporting Station
Clear Clear  
Wind Chill: 37°   Ceiling: Unl
Heat Index: 42°   Visibility: 10mi
Dew Point: 32°   Wind: 7mph
Humidity: 68%   Direction: 290°WNW
Pressure: 29.96"   Gusts: NA
Location:  36°N, 76.95°W
Report Text: KEDE 251415Z AUTO 29006KT 10SM CLR 06/00 A2996 RMK AO2 T00550000
Loading
Personal Weather Stations






























Interactive Weather Map New forecast layout! Learn more

10-Day Weather Forecast

Advertisements
Track Severe Weather on mobile